sensor_id;sensor_type;location;lat;lon;timestamp;temperature;humidity
31725;DHT22;18306;40.960;14.836;2022-10-24T11:53:46;22.40;99.90
31725;DHT22;18306;40.960;14.836;2022-10-24T11:56:25;22.40;99.90
31725;DHT22;18306;40.960;14.836;2022-10-24T11:59:01;22.30;99.90
31725;DHT22;18306;40.960;14.836;2022-10-24T12:15:55;22.40;99.90
31725;DHT22;18306;40.960;14.836;2022-10-24T12:18:48;22.40;99.90
31725;DHT22;18306;40.960;14.836;2022-10-24T12:21:24;22.40;99.90
31725;DHT22;18306;40.960;14.836;2022-10-24T12:23:54;22.40;99.90
31725;DHT22;18306;40.960;14.836;2022-10-24T12:26:30;22.30;99.90
31725;DHT22;18306;40.960;14.836;2022-10-24T12:29:03;22.30;99.90
31725;DHT22;18306;40.960;14.836;2022-10-24T12:31:33;22.30;99.90
31725;DHT22;18306;40.960;14.836;2022-10-24T12:39:37;22.30;99.90
31725;DHT22;18306;40.960;14.836;2022-10-24T12:44:47;22.20;99.90
31725;DHT22;18306;40.960;14.836;2022-10-24T12:53:02;22.10;99.90
31725;DHT22;18306;40.960;14.836;2022-10-24T12:57:57;22.00;99.90
31725;DHT22;18306;40.960;14.836;2022-10-24T13:00:27;22.00;99.90
31725;DHT22;18306;40.960;14.836;2022-10-24T13:03:21;22.00;99.90
31725;DHT22;18306;40.960;14.836;2022-10-24T13:11:57;21.90;99.90
31725;DHT22;18306;40.960;14.836;2022-10-24T13:17:32;21.80;99.90
31725;DHT22;18306;40.960;14.836;2022-10-24T13:20:22;21.80;99.90
31725;DHT22;18306;40.960;14.836;2022-10-24T13:23:04;21.90;99.90
31725;DHT22;18306;40.960;14.836;2022-10-24T13:25:36;21.80;99.90
31725;DHT22;18306;40.960;14.836;2022-10-24T13:30:50;21.90;99.90
31725;DHT22;18306;40.960;14.836;2022-10-24T13:33:41;21.90;99.90
31725;DHT22;18306;40.960;14.836;2022-10-24T13:36:21;21.90;99.90
31725;DHT22;18306;40.960;14.836;2022-10-24T13:38:58;21.80;99.90
31725;DHT22;18306;40.960;14.836;2022-10-24T13:41:48;21.70;99.90
31725;DHT22;18306;40.960;14.836;2022-10-24T13:47:28;21.70;99.90
31725;DHT22;18306;40.960;14.836;2022-10-24T13:50:04;21.80;99.90
31725;DHT22;18306;40.960;14.836;2022-10-24T14:00:22;21.60;99.90
31725;DHT22;18306;40.960;14.836;2022-10-24T14:02:57;21.50;99.90
31725;DHT22;18306;40.960;14.836;2022-10-24T14:08:13;21.50;99.90
31725;DHT22;18306;40.960;14.836;2022-10-24T14:10:45;21.50;99.90
31725;DHT22;18306;40.960;14.836;2022-10-24T14:13:16;21.50;99.90
31725;DHT22;18306;40.960;14.836;2022-10-24T14:16:00;21.50;99.90
31725;DHT22;18306;40.960;14.836;2022-10-24T14:18:30;21.40;99.90
31725;DHT22;18306;40.960;14.836;2022-10-24T14:21:21;21.40;99.90
31725;DHT22;18306;40.960;14.836;2022-10-24T14:23:59;21.40;99.90
31725;DHT22;18306;40.960;14.836;2022-10-24T14:26:28;21.40;99.90
31725;DHT22;18306;40.960;14.836;2022-10-24T14:29:22;21.40;99.90
31725;DHT22;18306;40.960;14.836;2022-10-24T14:32:13;21.30;99.90
31725;DHT22;18306;40.960;14.836;2022-10-24T14:34:47;21.30;99.90
31725;DHT22;18306;40.960;14.836;2022-10-24T14:37:26;21.10;99.90
31725;DHT22;18306;40.960;14.836;2022-10-24T14:40:18;21.20;99.90
31725;DHT22;18306;40.960;14.836;2022-10-24T14:42:48;21.20;99.90
31725;DHT22;18306;40.960;14.836;2022-10-24T14:45:28;21.10;99.90
31725;DHT22;18306;40.960;14.836;2022-10-24T14:47:58;21.20;99.90
31725;DHT22;18306;40.960;14.836;2022-10-24T14:50:45;21.10;99.90
31725;DHT22;18306;40.960;14.836;2022-10-24T14:53:24;21.00;99.90
31725;DHT22;18306;40.960;14.836;2022-10-24T14:55:59;20.90;99.90
31725;DHT22;18306;40.960;14.836;2022-10-24T14:58:31;21.00;99.90
31725;DHT22;18306;40.960;14.836;2022-10-24T15:01:02;20.90;99.90
31725;DHT22;18306;40.960;14.836;2022-10-24T15:03:29;20.80;99.90
31725;DHT22;18306;40.960;14.836;2022-10-24T15:09:30;20.70;99.90
31725;DHT22;18306;40.960;14.836;2022-10-24T15:12:01;20.60;99.90
31725;DHT22;18306;40.960;14.836;2022-10-24T15:20:02;20.50;99.90
31725;DHT22;18306;40.960;14.836;2022-10-24T15:22:33;20.40;99.90
31725;DHT22;18306;40.960;14.836;2022-10-24T15:25:15;20.30;99.90
31725;DHT22;18306;40.960;14.836;2022-10-24T15:27:45;20.20;99.90
31725;DHT22;18306;40.960;14.836;2022-10-24T15:30:19;20.20;99.90
31725;DHT22;18306;40.960;14.836;2022-10-24T15:32:48;20.10;99.90
31725;DHT22;18306;40.960;14.836;2022-10-24T15:35:17;20.10;99.90
31725;DHT22;18306;40.960;14.836;2022-10-24T15:38:03;20.00;99.90
31725;DHT22;18306;40.960;14.836;2022-10-24T15:40:44;19.90;99.90
31725;DHT22;18306;40.960;14.836;2022-10-24T15:43:13;19.90;99.90
31725;DHT22;18306;40.960;14.836;2022-10-24T15:45:41;19.70;99.90
31725;DHT22;18306;40.960;14.836;2022-10-24T15:48:09;19.60;99.90
31725;DHT22;18306;40.960;14.836;2022-10-24T15:50:43;19.60;99.90
31725;DHT22;18306;40.960;14.836;2022-10-24T15:53:19;19.50;99.90
31725;DHT22;18306;40.960;14.836;2022-10-24T15:55:48;19.40;99.90
31725;DHT22;18306;40.960;14.836;2022-10-24T15:58:16;19.30;99.90
31725;DHT22;18306;40.960;14.836;2022-10-24T16:00:44;19.10;99.90
31725;DHT22;18306;40.960;14.836;2022-10-24T16:03:19;19.00;99.90
31725;DHT22;18306;40.960;14.836;2022-10-24T16:05:53;18.90;99.90
31725;DHT22;18306;40.960;14.836;2022-10-24T16:08:22;18.70;99.90
31725;DHT22;18306;40.960;14.836;2022-10-24T16:10:50;18.50;99.90
31725;DHT22;18306;40.960;14.836;2022-10-24T16:13:31;18.30;99.90
31725;DHT22;18306;40.960;14.836;2022-10-24T16:16:05;18.30;99.90
31725;DHT22;18306;40.960;14.836;2022-10-24T16:18:37;18.30;99.90
31725;DHT22;18306;40.960;14.836;2022-10-24T16:21:22;18.40;99.90
31725;DHT22;18306;40.960;14.836;2022-10-24T16:23:53;18.30;99.90
31725;DHT22;18306;40.960;14.836;2022-10-24T16:26:29;18.20;99.90
31725;DHT22;18306;40.960;14.836;2022-10-24T16:29:00;18.10;99.90
31725;DHT22;18306;40.960;14.836;2022-10-24T16:31:27;17.90;99.90
31725;DHT22;18306;40.960;14.836;2022-10-24T16:33:58;17.70;99.90
31725;DHT22;18306;40.960;14.836;2022-10-24T16:36:26;17.50;99.90
31725;DHT22;18306;40.960;14.836;2022-10-24T16:38:56;17.50;99.90
31725;DHT22;18306;40.960;14.836;2022-10-24T16:41:25;17.40;99.90
31725;DHT22;18306;40.960;14.836;2022-10-24T16:43:54;17.30;99.90
31725;DHT22;18306;40.960;14.836;2022-10-24T16:46:23;17.30;99.90
31725;DHT22;18306;40.960;14.836;2022-10-24T16:48:51;17.10;99.90
31725;DHT22;18306;40.960;14.836;2022-10-24T16:51:25;17.00;99.90
31725;DHT22;18306;40.960;14.836;2022-10-24T16:54:00;16.90;99.90
31725;DHT22;18306;40.960;14.836;2022-10-24T16:56:28;16.90;99.90
31725;DHT22;18306;40.960;14.836;2022-10-24T16:59:38;16.80;99.90
31725;DHT22;18306;40.960;14.836;2022-10-24T17:02:05;16.80;99.90
31725;DHT22;18306;40.960;14.836;2022-10-24T17:04:33;16.70;99.90
31725;DHT22;18306;40.960;14.836;2022-10-24T17:07:00;16.60;99.90
31725;DHT22;18306;40.960;14.836;2022-10-24T17:09:30;16.60;99.90
31725;DHT22;18306;40.960;14.836;2022-10-24T17:12:00;16.50;99.90
31725;DHT22;18306;40.960;14.836;2022-10-24T17:14:27;16.50;99.90
31725;DHT22;18306;40.960;14.836;2022-10-24T17:16:55;16.50;99.90
31725;DHT22;18306;40.960;14.836;2022-10-24T17:19:22;16.50;99.90
31725;DHT22;18306;40.960;14.836;2022-10-24T17:21:50;16.60;99.90
31725;DHT22;18306;40.960;14.836;2022-10-24T17:24:21;16.60;99.90
31725;DHT22;18306;40.960;14.836;2022-10-24T17:26:49;16.60;99.90
31725;DHT22;18306;40.960;14.836;2022-10-24T17:29:27;16.60;99.90
31725;DHT22;18306;40.960;14.836;2022-10-24T17:31:56;16.70;99.90
31725;DHT22;18306;40.960;14.836;2022-10-24T17:34:24;16.60;99.90
31725;DHT22;18306;40.960;14.836;2022-10-24T17:36:59;16.50;99.90
31725;DHT22;18306;40.960;14.836;2022-10-24T17:39:57;16.40;99.90
31725;DHT22;18306;40.960;14.836;2022-10-24T17:42:26;16.40;99.90
31725;DHT22;18306;40.960;14.836;2022-10-24T17:44:54;16.40;99.90
31725;DHT22;18306;40.960;14.836;2022-10-24T17:47:21;16.40;99.90
31725;DHT22;18306;40.960;14.836;2022-10-24T17:49:49;16.50;99.90
31725;DHT22;18306;40.960;14.836;2022-10-24T17:52:21;16.50;99.90
31725;DHT22;18306;40.960;14.836;2022-10-24T17:54:59;16.50;99.90
31725;DHT22;18306;40.960;14.836;2022-10-24T17:57:35;16.40;99.90
31725;DHT22;18306;40.960;14.836;2022-10-24T18:00:13;16.40;99.90
31725;DHT22;18306;40.960;14.836;2022-10-24T18:02:46;16.40;99.90
31725;DHT22;18306;40.960;14.836;2022-10-24T18:05:14;16.40;99.90
31725;DHT22;18306;40.960;14.836;2022-10-24T18:07:48;16.30;99.90
31725;DHT22;18306;40.960;14.836;2022-10-24T18:10:18;16.40;99.90
31725;DHT22;18306;40.960;14.836;2022-10-24T18:12:46;16.40;99.90
31725;DHT22;18306;40.960;14.836;2022-10-24T18:15:23;16.30;99.90
31725;DHT22;18306;40.960;14.836;2022-10-24T18:17:55;16.40;99.90
31725;DHT22;18306;40.960;14.836;2022-10-24T18:20:24;16.30;99.90
31725;DHT22;18306;40.960;14.836;2022-10-24T18:22:54;16.20;99.90
31725;DHT22;18306;40.960;14.836;2022-10-24T18:25:22;16.10;99.90
31725;DHT22;18306;40.960;14.836;2022-10-24T18:27:49;16.10;99.90
31725;DHT22;18306;40.960;14.836;2022-10-24T18:30:17;16.00;99.90
31725;DHT22;18306;40.960;14.836;2022-10-24T18:32:47;15.90;99.90
31725;DHT22;18306;40.960;14.836;2022-10-24T18:35:15;15.80;99.90
31725;DHT22;18306;40.960;14.836;2022-10-24T18:37:42;15.70;99.90
31725;DHT22;18306;40.960;14.836;2022-10-24T18:40:09;15.60;99.90
31725;DHT22;18306;40.960;14.836;2022-10-24T18:42:52;15.50;99.90
31725;DHT22;18306;40.960;14.836;2022-10-24T18:45:23;15.50;99.90
31725;DHT22;18306;40.960;14.836;2022-10-24T18:47:51;15.40;99.90
31725;DHT22;18306;40.960;14.836;2022-10-24T18:50:22;15.30;99.90
31725;DHT22;18306;40.960;14.836;2022-10-24T18:53:02;15.30;99.90
31725;DHT22;18306;40.960;14.836;2022-10-24T18:55:33;15.30;99.90
31725;DHT22;18306;40.960;14.836;2022-10-24T18:58:01;15.40;99.90
31725;DHT22;18306;40.960;14.836;2022-10-24T19:00:32;15.40;99.90
31725;DHT22;18306;40.960;14.836;2022-10-24T19:05:54;15.20;99.90
31725;DHT22;18306;40.960;14.836;2022-10-24T19:08:29;15.20;99.90
31725;DHT22;18306;40.960;14.836;2022-10-24T19:11:06;15.10;99.90
31725;DHT22;18306;40.960;14.836;2022-10-24T19:13:33;15.00;99.90
31725;DHT22;18306;40.960;14.836;2022-10-24T19:16:01;15.20;99.90
31725;DHT22;18306;40.960;14.836;2022-10-24T19:18:33;15.00;99.90
31725;DHT22;18306;40.960;14.836;2022-10-24T19:21:03;14.90;99.90
31725;DHT22;18306;40.960;14.836;2022-10-24T19:23:32;14.90;99.90
31725;DHT22;18306;40.960;14.836;2022-10-24T19:25:59;14.80;99.90
31725;DHT22;18306;40.960;14.836;2022-10-24T19:28:26;14.80;99.90
31725;DHT22;18306;40.960;14.836;2022-10-24T19:30:54;14.70;99.90
31725;DHT22;18306;40.960;14.836;2022-10-24T19:33:23;14.60;99.90
31725;DHT22;18306;40.960;14.836;2022-10-24T19:35:54;14.60;99.90
31725;DHT22;18306;40.960;14.836;2022-10-24T19:38:22;14.50;99.90
31725;DHT22;18306;40.960;14.836;2022-10-24T19:40:52;14.60;99.90
31725;DHT22;18306;40.960;14.836;2022-10-24T19:52:06;14.60;99.90
31725;DHT22;18306;40.960;14.836;2022-10-24T19:54:35;14.50;99.90
31725;DHT22;18306;40.960;14.836;2022-10-24T19:57:03;14.60;99.90
31725;DHT22;18306;40.960;14.836;2022-10-24T19:59:34;14.40;99.90
31725;DHT22;18306;40.960;14.836;2022-10-24T20:02:05;14.40;99.90
31725;DHT22;18306;40.960;14.836;2022-10-24T20:04:37;14.30;99.90
31725;DHT22;18306;40.960;14.836;2022-10-24T20:07:09;14.30;99.90
31725;DHT22;18306;40.960;14.836;2022-10-24T20:09:39;14.10;99.90
31725;DHT22;18306;40.960;14.836;2022-10-24T20:12:06;14.10;99.90
31725;DHT22;18306;40.960;14.836;2022-10-24T20:14:34;14.20;99.90
31725;DHT22;18306;40.960;14.836;2022-10-24T20:17:02;14.20;99.90
31725;DHT22;18306;40.960;14.836;2022-10-24T20:19:34;14.20;99.90
31725;DHT22;18306;40.960;14.836;2022-10-24T20:22:01;14.00;99.90
31725;DHT22;18306;40.960;14.836;2022-10-24T20:24:31;14.00;99.90
31725;DHT22;18306;40.960;14.836;2022-10-24T20:27:01;14.10;99.90
31725;DHT22;18306;40.960;14.836;2022-10-24T20:29:28;14.10;99.90
31725;DHT22;18306;40.960;14.836;2022-10-24T20:31:58;14.00;99.90
31725;DHT22;18306;40.960;14.836;2022-10-24T20:34:32;13.80;99.90
31725;DHT22;18306;40.960;14.836;2022-10-24T20:37:00;13.80;99.90
31725;DHT22;18306;40.960;14.836;2022-10-24T20:39:28;13.80;99.90
31725;DHT22;18306;40.960;14.836;2022-10-24T20:41:58;13.90;99.90
31725;DHT22;18306;40.960;14.836;2022-10-24T20:44:26;13.80;99.90
31725;DHT22;18306;40.960;14.836;2022-10-24T20:46:53;13.90;99.90
31725;DHT22;18306;40.960;14.836;2022-10-24T20:49:21;13.90;99.90
31725;DHT22;18306;40.960;14.836;2022-10-24T20:51:49;13.80;99.90
31725;DHT22;18306;40.960;14.836;2022-10-24T20:54:17;13.70;99.90
31725;DHT22;18306;40.960;14.836;2022-10-24T20:56:45;13.60;99.90
31725;DHT22;18306;40.960;14.836;2022-10-24T20:59:12;13.60;99.90
31725;DHT22;18306;40.960;14.836;2022-10-24T21:01:40;13.60;99.90
31725;DHT22;18306;40.960;14.836;2022-10-24T21:04:12;13.50;99.90
31725;DHT22;18306;40.960;14.836;2022-10-24T21:06:40;13.50;99.90
31725;DHT22;18306;40.960;14.836;2022-10-24T21:09:07;13.60;99.90
31725;DHT22;18306;40.960;14.836;2022-10-24T21:11:35;13.60;99.90
31725;DHT22;18306;40.960;14.836;2022-10-24T21:14:05;13.60;99.90
31725;DHT22;18306;40.960;14.836;2022-10-24T21:16:33;13.60;99.90
31725;DHT22;18306;40.960;14.836;2022-10-24T21:19:01;13.50;99.90
31725;DHT22;18306;40.960;14.836;2022-10-24T21:21:30;13.60;99.90
31725;DHT22;18306;40.960;14.836;2022-10-24T21:23:59;13.50;99.90
31725;DHT22;18306;40.960;14.836;2022-10-24T21:26:26;13.40;99.90
31725;DHT22;18306;40.960;14.836;2022-10-24T21:28:54;13.40;99.90
31725;DHT22;18306;40.960;14.836;2022-10-24T21:31:23;13.50;99.90
31725;DHT22;18306;40.960;14.836;2022-10-24T21:33:51;13.40;99.90
31725;DHT22;18306;40.960;14.836;2022-10-24T21:36:21;13.40;99.90
31725;DHT22;18306;40.960;14.836;2022-10-24T21:38:52;13.30;99.90
31725;DHT22;18306;40.960;14.836;2022-10-24T21:41:20;13.30;99.90
31725;DHT22;18306;40.960;14.836;2022-10-24T21:43:48;13.10;99.90
31725;DHT22;18306;40.960;14.836;2022-10-24T21:46:20;13.20;99.90
31725;DHT22;18306;40.960;14.836;2022-10-24T21:48:49;13.00;99.90
31725;DHT22;18306;40.960;14.836;2022-10-24T21:51:20;13.00;99.90
31725;DHT22;18306;40.960;14.836;2022-10-24T21:53:56;13.10;99.90
31725;DHT22;18306;40.960;14.836;2022-10-24T21:56:28;13.10;99.90
31725;DHT22;18306;40.960;14.836;2022-10-24T21:58:59;13.10;99.90
31725;DHT22;18306;40.960;14.836;2022-10-24T22:01:29;13.00;99.90
31725;DHT22;18306;40.960;14.836;2022-10-24T22:03:58;13.00;99.90
31725;DHT22;18306;40.960;14.836;2022-10-24T22:06:27;13.10;99.90
31725;DHT22;18306;40.960;14.836;2022-10-24T22:08:55;13.20;99.90
31725;DHT22;18306;40.960;14.836;2022-10-24T22:11:28;13.10;99.90
31725;DHT22;18306;40.960;14.836;2022-10-24T22:13:57;13.00;99.90
31725;DHT22;18306;40.960;14.836;2022-10-24T22:16:26;13.00;99.90
31725;DHT22;18306;40.960;14.836;2022-10-24T22:18:55;13.10;99.90
31725;DHT22;18306;40.960;14.836;2022-10-24T22:21:34;12.90;99.90
31725;DHT22;18306;40.960;14.836;2022-10-24T22:24:07;12.90;99.90
31725;DHT22;18306;40.960;14.836;2022-10-24T22:26:36;12.90;99.90
31725;DHT22;18306;40.960;14.836;2022-10-24T22:29:04;13.00;99.90
31725;DHT22;18306;40.960;14.836;2022-10-24T22:31:32;13.00;99.90
31725;DHT22;18306;40.960;14.836;2022-10-24T22:33:59;12.90;99.90
31725;DHT22;18306;40.960;14.836;2022-10-24T22:39:12;12.90;99.90
31725;DHT22;18306;40.960;14.836;2022-10-24T22:41:41;12.80;99.90
31725;DHT22;18306;40.960;14.836;2022-10-24T22:44:10;12.80;99.90
31725;DHT22;18306;40.960;14.836;2022-10-24T22:52:18;12.90;99.90
31725;DHT22;18306;40.960;14.836;2022-10-24T22:54:45;12.80;99.90
31725;DHT22;18306;40.960;14.836;2022-10-24T22:57:13;12.70;99.90
31725;DHT22;18306;40.960;14.836;2022-10-24T22:59:40;12.50;99.90
31725;DHT22;18306;40.960;14.836;2022-10-24T23:02:27;12.50;99.90
31725;DHT22;18306;40.960;14.836;2022-10-24T23:05:02;12.60;99.90
31725;DHT22;18306;40.960;14.836;2022-10-24T23:08:05;12.50;99.90
31725;DHT22;18306;40.960;14.836;2022-10-24T23:10:33;12.50;99.90
31725;DHT22;18306;40.960;14.836;2022-10-24T23:13:02;12.70;99.90
31725;DHT22;18306;40.960;14.836;2022-10-24T23:15:29;12.70;99.90
31725;DHT22;18306;40.960;14.836;2022-10-24T23:17:57;12.60;99.90
31725;DHT22;18306;40.960;14.836;2022-10-24T23:20:51;12.50;99.90
31725;DHT22;18306;40.960;14.836;2022-10-24T23:23:21;12.50;99.90
31725;DHT22;18306;40.960;14.836;2022-10-24T23:26:02;12.50;99.90
31725;DHT22;18306;40.960;14.836;2022-10-24T23:28:46;12.40;99.90
31725;DHT22;18306;40.960;14.836;2022-10-24T23:31:16;12.40;99.90
31725;DHT22;18306;40.960;14.836;2022-10-24T23:33:43;12.40;99.90
31725;DHT22;18306;40.960;14.836;2022-10-24T23:36:20;12.40;99.90
31725;DHT22;18306;40.960;14.836;2022-10-24T23:38:47;12.40;99.90
31725;DHT22;18306;40.960;14.836;2022-10-24T23:41:15;12.50;99.90
31725;DHT22;18306;40.960;14.836;2022-10-24T23:43:42;12.40;99.90
31725;DHT22;18306;40.960;14.836;2022-10-24T23:46:26;12.40;99.90
31725;DHT22;18306;40.960;14.836;2022-10-24T23:52:20;12.40;99.90
31725;DHT22;18306;40.960;14.836;2022-10-24T23:54:52;12.50;99.90
31725;DHT22;18306;40.960;14.836;2022-10-24T23:57:19;12.50;99.90
31725;DHT22;18306;40.960;14.836;2022-10-24T23:59:46;12.20;99.90
